Tropical Cyclones
[Index]
Main Index Home Page Stock Weather Photos Extreme Storms Discussion Storm News and Storm Chasing Reports Tropical Cyclones / Hurricanes / Typhoons Weather Data and Links Wild Fires / Bushfires Weather Observation Techniques Weather Picture Catalogue Tornado Pictures and Reports Stock Video Footage and DVDs for sale
Season 2013-2014 Tropical Cyclone DELIWE Track Map
Season 2013-2014 Summaries (Operational Data): [AU] [SIO] [SPAC] [SH]
<<- Previous TC | 2013-2014 Season | Next TC ->>

click for intensity scale information  Lat/long Grid: Show Hide

 Date Labels: Show Hide

Operational Tropical Cyclone Data : JTWC Advisories

Name: DELIWE
Number: 1409

12 Jan 2014 06:00 UTC to 22 Jan 2014 06:00 UTC

    date/time    lat    long     hPa   cat  kts
2014-01-12 06   10.6    47.8    1010         15          
2014-01-12 12   11.3    47.0    1010         15          
2014-01-12 18   11.5    44.4    1010         15          
2014-01-13 00   13.3    43.8    1010         15          
2014-01-13 06   13.9    43.0    1010         15          
2014-01-13 12   14.4    41.8    1010         15          
2014-01-13 18   14.6    42.1    1010         15          
2014-01-14 00   14.9    42.4    1010         15          
2014-01-14 06   15.1    42.7    1010         15          
2014-01-14 12   15.4    43.0    1010         15          
2014-01-14 18   15.9    43.4    1007         20          
2014-01-15 00   16.3    43.8    1004         25          
2014-01-15 06   16.6    44.5    1004         25          
2014-01-15 12   17.3    44.7    1004         25          
2014-01-15 18   18.1    44.4    1004         25          
2014-01-16 00   18.7    44.0    1000         30          
2014-01-16 06   19.4    43.9    1000         30          
2014-01-16 12   20.7    43.6     996    1    35          
2014-01-16 18   21.7    43.1     996    1    35          
2014-01-17 00   22.4    42.6     989    1    45          
2014-01-17 06   23.5    42.3     989    1    45          
2014-01-17 12   24.6    41.6     993    1    40          
2014-01-17 18   25.3    40.6     996    1    35          
2014-01-18 00   25.6    40.1     996         25          
2014-01-18 06   25.8    39.8    1000         30          
2014-01-18 12   25.7    39.6    1000         30          
2014-01-18 18   25.6    39.4    1000         30          
2014-01-19 00   25.3    38.8    1000         30          
2014-01-19 06   24.4    38.3    1004         25          
2014-01-19 12   23.8    38.0    1004         25          
2014-01-19 18   23.5    38.1    1004         25          
2014-01-20 00   23.5    38.1    1004         25          
2014-01-20 06   23.0    37.3    1004         25          
2014-01-20 12   22.9    37.6    1004         25          
2014-01-20 18   23.0    36.9    1004         25          
2014-01-21 00   22.7    36.6    1004         25          
2014-01-21 06   22.7    35.8    1007         20          
2014-01-21 12   22.2    35.8    1007         20          
2014-01-21 18   21.5    35.4    1007         20          
2014-01-22 00   20.5    34.7    1007         20          
2014-01-22 06   19.9    33.8    1007         20          
Winds are 10-min average.

Tropical cyclone tracks developed by Michael Bath using operational warnings and advisories and Google Maps.


[Australian Severe Weather index] [Copyright Notice] [Email Contacts] [Search This Site] [Privacy Policy]
Document: tropical_cyclone_deliwe.htm Updated: 2 May 2017